createdAt,value
2018-04-24T00:01:58.364Z,15.56
2018-04-24T00:04:28.802Z,15.73
2018-04-24T00:07:09.478Z,15.62
2018-04-24T00:09:40.221Z,15.58
2018-04-24T00:12:11.033Z,15.54
2018-04-24T00:14:42.786Z,15.45
2018-04-24T00:17:13.751Z,15.38
2018-04-24T00:19:44.050Z,15.34
2018-04-24T00:22:14.587Z,15.47
2018-04-24T00:25:01.334Z,15.39
2018-04-24T00:27:38.929Z,15.35
2018-04-24T00:30:09.443Z,15.28
2018-04-24T00:32:39.796Z,15.23
2018-04-24T00:35:11.459Z,15.37
2018-04-24T00:37:41.536Z,15.40
2018-04-24T00:40:11.887Z,15.43
2018-04-24T00:42:42.147Z,15.36
2018-04-24T00:45:15.036Z,14.92
2018-04-24T00:47:45.635Z,14.96
2018-04-24T00:50:16.564Z,15.01
2018-04-24T00:52:46.815Z,15.09
2018-04-24T00:55:17.261Z,15.04
2018-04-24T00:57:47.547Z,14.78
2018-04-24T01:00:18.424Z,14.72
2018-04-24T01:02:49.033Z,14.46
2018-04-24T01:05:19.128Z,14.65
2018-04-24T01:07:49.743Z,14.81
2018-04-24T01:10:20.408Z,14.93
2018-04-24T01:12:51.879Z,14.85
2018-04-24T01:15:22.358Z,14.75
2018-04-24T01:17:52.837Z,14.70
2018-04-24T01:20:23.049Z,14.69
2018-04-24T01:22:53.422Z,14.58
2018-04-24T01:25:23.671Z,14.51
2018-04-24T01:27:54.159Z,14.35
2018-04-24T01:30:24.883Z,14.20
2018-04-24T01:32:55.039Z,14.22
2018-04-24T01:35:26.161Z,14.23
2018-04-24T01:37:56.734Z,14.31
2018-04-24T01:40:26.951Z,14.29
2018-04-24T01:42:57.179Z,14.35
2018-04-24T01:45:28.837Z,14.27
2018-04-24T01:47:59.931Z,14.09
2018-04-24T01:50:31.054Z,14.14
2018-04-24T01:53:02.160Z,14.22
2018-04-24T01:55:32.441Z,13.98
2018-04-24T01:58:02.940Z,13.60
2018-04-24T02:00:33.636Z,14.00
2018-04-24T02:03:03.881Z,13.79
2018-04-24T02:05:34.405Z,13.78
2018-04-24T02:08:06.031Z,13.69
2018-04-24T02:10:36.107Z,13.71
2018-04-24T02:13:07.526Z,13.53
2018-04-24T02:15:37.928Z,13.66
2018-04-24T02:18:08.297Z,13.73
2018-04-24T02:20:39.371Z,13.74
2018-04-24T02:23:10.081Z,13.86
2018-04-24T02:25:40.477Z,13.69
2018-04-24T02:28:12.285Z,13.82
2018-04-24T02:30:42.872Z,13.66
2018-04-24T02:33:13.757Z,13.57
2018-04-24T02:35:44.511Z,13.43
2018-04-24T02:38:14.826Z,13.38
2018-04-24T02:40:45.059Z,13.31
2018-04-24T02:43:15.450Z,13.49
2018-04-24T02:45:49.111Z,13.36
2018-04-24T02:48:22.181Z,13.40
2018-04-24T02:50:52.539Z,13.28
2018-04-24T02:53:23.194Z,13.13
2018-04-24T02:55:54.389Z,13.12
2018-04-24T02:58:25.448Z,13.40
2018-04-24T03:00:56.158Z,13.26
2018-04-24T03:03:26.812Z,13.21
2018-04-24T03:05:57.772Z,13.27
2018-04-24T03:08:28.250Z,13.27
2018-04-24T03:10:58.807Z,13.37
2018-04-24T03:13:28.947Z,13.31
2018-04-24T03:15:59.412Z,13.26
2018-04-24T03:18:29.462Z,13.20
2018-04-24T03:20:59.814Z,13.37
2018-04-24T03:23:29.951Z,13.36
2018-04-24T03:26:00.636Z,13.24
2018-04-24T03:28:30.997Z,13.27
2018-04-24T03:31:02.329Z,13.43
2018-04-24T03:33:33.403Z,13.21
2018-04-24T03:36:03.777Z,13.19
2018-04-24T03:38:34.206Z,13.21
2018-04-24T03:41:04.859Z,13.21
2018-04-24T03:43:35.334Z,13.26
2018-04-24T03:46:06.171Z,13.20
2018-04-24T03:48:36.503Z,13.22
2018-04-24T03:51:07.058Z,13.13
2018-04-24T03:53:37.167Z,13.19
2018-04-24T03:56:07.236Z,13.15
2018-04-24T03:58:37.899Z,13.00
2018-04-24T04:01:10.298Z,13.01
2018-04-24T04:03:40.625Z,13.01
2018-04-24T04:08:55.365Z,13.04
2018-04-24T04:11:25.593Z,12.87
2018-04-24T04:13:55.787Z,12.86
2018-04-24T04:16:29.710Z,12.69
2018-04-24T04:20:11.511Z,12.84
2018-04-24T04:22:53.273Z,12.80
2018-04-24T04:25:23.444Z,12.94
2018-04-24T04:27:56.759Z,12.91
2018-04-24T04:30:27.194Z,12.97
2018-04-24T04:33:06.938Z,13.05
2018-04-24T04:35:52.328Z,13.08
2018-04-24T04:38:33.911Z,12.94
2018-04-24T04:41:05.126Z,12.86
2018-04-24T04:43:36.448Z,13.07
2018-04-24T04:46:07.943Z,13.19
2018-04-24T04:48:38.497Z,13.24
2018-04-24T04:51:09.538Z,13.30
2018-04-24T04:53:39.746Z,13.29
2018-04-24T04:56:11.384Z,13.28
2018-04-24T04:58:41.701Z,13.50
2018-04-24T05:01:12.289Z,13.35
2018-04-24T05:03:48.493Z,13.46
2018-04-24T05:06:20.167Z,13.22
2018-04-24T05:08:50.719Z,13.55
2018-04-24T05:11:23.153Z,13.36
2018-04-24T05:13:53.660Z,13.71
2018-04-24T05:16:24.194Z,13.62
2018-04-24T05:18:54.774Z,13.60
2018-04-24T05:21:25.546Z,13.56
2018-04-24T05:23:56.160Z,13.73
2018-04-24T05:26:26.607Z,13.65
2018-04-24T05:28:58.111Z,13.67
2018-04-24T05:31:28.687Z,13.81
2018-04-24T05:34:03.664Z,14.05
2018-04-24T05:36:35.607Z,13.87
2018-04-24T05:39:10.515Z,13.83
2018-04-24T05:41:40.854Z,13.89
2018-04-24T05:44:11.099Z,14.16
2018-04-24T05:46:42.341Z,13.95
2018-04-24T05:49:12.557Z,13.90
2018-04-24T05:51:45.593Z,14.05
2018-04-24T05:54:16.080Z,14.18
2018-04-24T05:56:46.828Z,14.13
2018-04-24T05:59:18.565Z,14.23
2018-04-24T06:01:49.258Z,14.31
2018-04-24T06:04:20.575Z,14.58
2018-04-24T06:06:50.855Z,14.78
2018-04-24T06:09:29.604Z,14.70
2018-04-24T06:12:00.590Z,14.80
2018-04-24T06:14:30.884Z,14.98
2018-04-24T06:17:02.098Z,14.58
2018-04-24T06:19:38.754Z,14.77
2018-04-24T06:22:09.730Z,14.57
2018-04-24T06:24:41.325Z,14.70
2018-04-24T06:27:11.937Z,14.52
2018-04-24T06:29:42.323Z,14.87
2018-04-24T06:32:14.799Z,14.85
2018-04-24T06:34:45.421Z,14.67
2018-04-24T06:37:16.964Z,14.90
2018-04-24T06:39:48.589Z,14.95
2018-04-24T06:42:19.850Z,15.23
2018-04-24T06:44:50.733Z,15.20
2018-04-24T06:47:21.361Z,15.37
2018-04-24T06:49:52.090Z,15.44
2018-04-24T06:52:28.962Z,15.48
2018-04-24T06:55:02.960Z,15.36
2018-04-24T06:57:33.918Z,15.12
2018-04-24T07:00:07.442Z,15.51
2018-04-24T07:02:37.942Z,15.79
2018-04-24T07:05:09.621Z,15.68
2018-04-24T07:07:40.506Z,15.93
2018-04-24T07:10:12.642Z,15.51
2018-04-24T07:12:44.077Z,15.71
2018-04-24T07:15:17.760Z,15.74
2018-04-24T07:17:48.402Z,15.83
2018-04-24T07:20:19.366Z,15.92
2018-04-24T07:22:49.860Z,15.54
2018-04-24T07:25:21.441Z,15.64
2018-04-24T07:27:52.039Z,15.94
2018-04-24T07:30:23.380Z,15.79
2018-04-24T07:32:53.717Z,15.89
2018-04-24T07:35:26.692Z,15.97
2018-04-24T07:37:56.884Z,15.87
2018-04-24T07:40:28.401Z,15.99
2018-04-24T07:42:59.556Z,15.86
2018-04-24T07:45:31.512Z,15.57
2018-04-24T07:48:02.716Z,15.45
2018-04-24T07:50:37.188Z,15.85
2018-04-24T07:53:07.497Z,15.97
2018-04-24T07:55:40.578Z,15.61
2018-04-24T07:58:11.672Z,15.53
2018-04-24T08:00:43.232Z,15.67
2018-04-24T08:03:15.715Z,15.37
2018-04-24T08:05:55.039Z,15.82
2018-04-24T08:08:27.465Z,15.96
2018-04-24T08:10:58.195Z,15.87
2018-04-24T08:13:30.183Z,16.08
2018-04-24T08:16:00.641Z,16.09
2018-04-24T08:18:31.413Z,15.73
2018-04-24T08:21:01.914Z,15.74
2018-04-24T08:23:32.890Z,15.73
2018-04-24T08:26:04.364Z,15.83
2018-04-24T08:28:34.742Z,15.74
2018-04-24T08:31:05.478Z,15.80
2018-04-24T08:33:36.927Z,15.57
2018-04-24T08:36:07.277Z,15.90
2018-04-24T08:38:38.491Z,15.97
2018-04-24T08:41:13.104Z,15.90
2018-04-24T08:43:44.508Z,15.41
2018-04-24T08:46:15.365Z,15.45
2018-04-24T08:48:45.759Z,15.79
2018-04-24T08:51:16.361Z,15.56
2018-04-24T08:53:47.177Z,15.73
2018-04-24T08:56:17.276Z,15.20
2018-04-24T08:58:47.543Z,15.22
2018-04-24T09:01:18.647Z,15.08
2018-04-24T09:03:49.674Z,15.10
2018-04-24T09:06:19.751Z,15.15
2018-04-24T09:08:50.799Z,15.36
2018-04-24T09:11:21.047Z,15.52
2018-04-24T09:56:01.769Z,15.52
2018-04-24T09:58:33.172Z,15.45
2018-04-24T10:01:08.096Z,15.61
2018-04-24T10:03:39.079Z,15.98
2018-04-24T10:06:10.659Z,15.68
2018-04-24T10:08:42.702Z,15.63
2018-04-24T10:11:14.142Z,16.16
2018-04-24T10:13:49.096Z,16.39
2018-04-24T10:16:26.354Z,16.61
2018-04-24T10:18:59.721Z,16.59
2018-04-24T10:21:30.741Z,16.32
2018-04-24T10:24:01.831Z,16.18
2018-04-24T10:26:37.234Z,16.44
2018-04-24T10:29:08.315Z,16.52
2018-04-24T10:31:40.032Z,16.86
2018-04-24T10:34:16.133Z,17.12
2018-04-24T10:36:49.390Z,16.92
2018-04-24T10:39:19.608Z,16.84
2018-04-24T10:41:49.985Z,16.71
2018-04-24T10:44:20.211Z,16.88
2018-04-24T10:46:50.545Z,16.83
2018-04-24T10:49:20.717Z,17.12
2018-04-24T10:51:53.335Z,17.31
2018-04-24T10:54:34.603Z,17.62
2018-04-24T10:57:05.262Z,17.57
2018-04-24T10:59:38.076Z,17.46
2018-04-24T11:02:08.754Z,17.42
2018-04-24T11:04:39.922Z,17.51
2018-04-24T11:07:11.467Z,17.69
2018-04-24T11:09:42.902Z,17.77
2018-04-24T11:12:13.402Z,17.85
2018-04-24T11:14:43.767Z,17.75
2018-04-24T11:17:19.649Z,17.77
2018-04-24T11:19:51.152Z,17.85
2018-04-24T11:22:21.987Z,17.85
2018-04-24T11:24:53.422Z,17.78
2018-04-24T11:27:25.339Z,17.71
2018-04-24T11:29:55.784Z,17.94
2018-04-24T11:32:26.241Z,18.07
2018-04-24T11:34:56.802Z,18.07
2018-04-24T11:37:27.867Z,18.03
2018-04-24T11:39:58.259Z,18.19
2018-04-24T11:42:29.656Z,18.04
2018-04-24T11:45:00.442Z,18.28
2018-04-24T11:47:33.648Z,18.19
2018-04-24T11:50:03.962Z,17.97
2018-04-24T11:52:34.701Z,17.84
2018-04-24T11:55:05.709Z,17.78
2018-04-24T11:57:36.770Z,17.83
2018-04-24T12:00:11.002Z,17.86
2018-04-24T12:02:44.981Z,17.85
2018-04-24T12:05:18.926Z,17.96
2018-04-24T12:07:49.272Z,17.98
2018-04-24T12:10:21.392Z,17.83
2018-04-24T12:12:52.541Z,17.80
2018-04-24T12:15:41.958Z,17.85
2018-04-24T12:21:48.203Z,18.36
2018-04-24T12:24:51.511Z,18.49
2018-04-24T12:27:32.164Z,18.93
2018-04-24T12:30:07.910Z,19.10
2018-04-24T12:32:42.356Z,19.30
2018-04-24T12:35:16.881Z,19.08
2018-04-24T12:37:49.058Z,18.78
2018-04-24T12:40:19.816Z,18.79
2018-04-24T12:43:05.909Z,19.21
2018-04-24T12:45:42.955Z,19.27
2018-04-24T12:48:15.746Z,19.19
2018-04-24T12:50:53.315Z,19.20
2018-04-24T12:53:24.159Z,19.13
2018-04-24T12:55:55.298Z,19.23
2018-04-24T12:58:25.684Z,19.64
2018-04-24T13:00:57.487Z,19.86
2018-04-24T13:03:28.106Z,19.86
2018-04-24T13:05:58.604Z,20.08
2018-04-24T13:08:29.591Z,19.72
2018-04-24T13:11:00.751Z,19.97
2018-04-24T13:13:36.326Z,19.97
2018-04-24T13:16:09.635Z,20.01
2018-04-24T13:18:40.008Z,20.24
2018-04-24T13:21:14.638Z,20.52
2018-04-24T13:23:44.858Z,20.62
2018-04-24T13:26:16.360Z,20.90
2018-04-24T13:28:52.281Z,21.02
2018-04-24T13:31:30.185Z,20.80
2018-04-24T13:34:01.286Z,20.95
2018-04-24T13:36:31.738Z,21.08
2018-04-24T13:39:03.051Z,20.94
2018-04-24T13:41:33.552Z,20.93
2018-04-24T13:44:03.852Z,21.18
2018-04-24T13:46:34.755Z,21.46
2018-04-24T13:49:05.186Z,21.81
2018-04-24T13:51:36.043Z,21.32
2018-04-24T13:54:06.935Z,21.06
2018-04-24T13:56:38.081Z,21.02
2018-04-24T13:59:10.524Z,21.12
2018-04-24T14:01:42.284Z,21.39
2018-04-24T14:04:12.673Z,21.34
2018-04-24T14:06:44.429Z,21.64
2018-04-24T14:09:15.072Z,21.27
2018-04-24T14:11:46.231Z,21.11
2018-04-24T14:14:17.779Z,21.11
2018-04-24T14:16:56.077Z,20.99
2018-04-24T14:19:28.228Z,20.87
2018-04-24T14:21:58.930Z,20.70
2018-04-24T14:24:29.340Z,20.71
2018-04-24T14:27:08.386Z,20.96
2018-04-24T14:29:42.488Z,21.40
2018-04-24T14:32:14.517Z,21.33
2018-04-24T14:34:47.969Z,21.28
2018-04-24T14:37:25.331Z,21.41
2018-04-24T14:39:56.475Z,21.36
2018-04-24T14:42:34.995Z,21.40
2018-04-24T14:45:22.399Z,21.35
2018-04-24T14:47:55.844Z,21.68
2018-04-24T14:50:27.509Z,21.46
2018-04-24T14:52:59.982Z,21.46
2018-04-24T14:55:31.355Z,21.56
2018-04-24T14:58:02.213Z,21.31
2018-04-24T15:00:33.420Z,21.30
2018-04-24T15:03:03.959Z,21.33
2018-04-24T15:05:34.635Z,21.38
2018-04-24T15:08:05.815Z,21.30
2018-04-24T15:10:41.037Z,21.31
2018-04-24T15:13:16.397Z,21.11
2018-04-24T15:18:41.051Z,21.05
2018-04-24T15:21:18.630Z,20.98
2018-04-24T15:23:53.379Z,21.26
2018-04-24T15:26:27.009Z,21.03
2018-04-24T15:29:05.248Z,20.93
2018-04-24T15:31:38.874Z,20.91
2018-04-24T15:34:11.938Z,20.82
2018-04-24T15:36:46.809Z,20.54
2018-04-24T15:39:19.099Z,20.75
2018-04-24T15:41:50.646Z,21.17
2018-04-24T15:44:24.696Z,21.03
2018-04-24T15:46:57.566Z,20.94
2018-04-24T15:49:36.638Z,20.74
2018-04-24T15:55:16.922Z,20.38
2018-04-24T15:58:09.630Z,20.48
2018-04-24T16:00:50.792Z,20.33
2018-04-24T16:09:15.621Z,20.31
2018-04-24T16:11:51.526Z,20.36
2018-04-24T16:14:39.098Z,20.55
2018-04-24T16:17:18.974Z,20.40
2018-04-24T16:20:00.607Z,20.28
2018-04-24T16:22:35.280Z,20.42
2018-04-24T16:25:10.101Z,20.50
2018-04-24T16:27:43.410Z,20.57
2018-04-24T16:30:20.303Z,20.46
2018-04-24T16:33:11.799Z,20.42
2018-04-24T16:35:45.241Z,20.40
2018-04-24T16:38:17.728Z,20.54
2018-04-24T16:41:00.951Z,20.50
2018-04-24T16:43:42.631Z,20.47
2018-04-24T16:46:19.592Z,20.63
2018-04-24T16:49:01.169Z,20.58
2018-04-24T16:51:35.997Z,20.42
2018-04-24T16:54:14.462Z,20.38
2018-04-24T16:56:46.625Z,20.65
2018-04-24T16:59:18.139Z,20.84
2018-04-24T17:01:50.015Z,20.77
2018-04-24T17:04:22.488Z,20.89
2018-04-24T17:06:55.669Z,20.94
2018-04-24T17:09:26.596Z,20.87
2018-04-24T17:11:57.676Z,20.72
2018-04-24T17:14:28.096Z,20.65
2018-04-24T17:17:02.029Z,20.63
2018-04-24T17:22:19.265Z,20.46
2018-04-24T17:24:51.017Z,20.24
2018-04-24T17:27:26.318Z,20.18
2018-04-24T17:29:59.749Z,20.36
2018-04-24T17:32:41.022Z,20.27
2018-04-24T17:35:29.014Z,20.23
2018-04-24T17:41:46.908Z,20.37
2018-04-24T17:44:29.239Z,20.23
2018-04-24T17:47:13.070Z,20.24
2018-04-24T17:49:47.613Z,20.13
2018-04-24T17:52:31.398Z,20.13
2018-04-24T17:55:38.066Z,20.11
2018-04-24T17:58:40.487Z,19.88
2018-04-24T18:04:34.695Z,20.02
2018-04-24T18:07:06.338Z,20.03
2018-04-24T18:09:40.489Z,19.99
2018-04-24T18:12:13.659Z,19.75
2018-04-24T18:14:45.922Z,19.77
2018-04-24T18:17:17.005Z,19.81
2018-04-24T18:19:47.502Z,19.51
2018-04-24T18:25:03.011Z,19.51
2018-04-24T18:27:34.826Z,19.50
2018-04-24T18:30:07.745Z,19.46
2018-04-24T18:32:39.227Z,19.68
2018-04-24T18:35:13.724Z,19.66
2018-04-24T18:37:45.417Z,19.49
2018-04-24T18:40:17.879Z,19.53
2018-04-24T18:42:49.114Z,19.68
2018-04-24T18:45:27.990Z,19.57
2018-04-24T18:47:58.990Z,19.54
2018-04-24T18:50:30.837Z,19.66
2018-04-24T18:53:01.109Z,19.49
2018-04-24T18:55:32.304Z,19.68
2018-04-24T18:58:03.556Z,19.61
2018-04-24T19:00:35.120Z,19.73
2018-04-24T19:03:05.853Z,19.65
2018-04-24T19:05:38.141Z,19.62
2018-04-24T19:08:10.860Z,19.66
2018-04-24T19:10:45.326Z,19.40
2018-04-24T19:13:18.007Z,19.54
2018-04-24T19:15:50.903Z,19.54
2018-04-24T19:18:32.628Z,19.57
2018-04-24T19:21:04.291Z,19.52
2018-04-24T19:23:35.233Z,19.53
2018-04-24T19:26:13.601Z,19.72
2018-04-24T19:28:46.051Z,19.62
2018-04-24T19:31:22.911Z,19.59
2018-04-24T19:33:54.529Z,19.60
2018-04-24T19:36:26.546Z,19.35
2018-04-24T19:39:03.019Z,19.49
2018-04-24T19:41:53.492Z,19.36
2018-04-24T19:44:24.804Z,19.44
2018-04-24T19:47:12.470Z,19.40
2018-04-24T19:50:19.907Z,19.45
2018-04-24T19:52:51.934Z,19.33
2018-04-24T19:55:28.917Z,19.18
2018-04-24T19:58:12.815Z,19.27
2018-04-24T20:00:44.800Z,19.36
2018-04-24T20:03:17.334Z,19.39
2018-04-24T20:05:50.300Z,19.37
2018-04-24T20:08:24.455Z,19.21
2018-04-24T20:10:57.013Z,19.18
2018-04-24T20:13:28.241Z,18.80
2018-04-24T20:16:02.507Z,18.56
2018-04-24T20:18:35.133Z,18.54
2018-04-24T20:21:07.521Z,18.90
2018-04-24T20:23:40.336Z,18.88
2018-04-24T20:26:12.204Z,18.60
2018-04-24T20:28:43.162Z,18.28
2018-04-24T20:31:15.995Z,18.71
2018-04-24T20:33:49.156Z,18.68
2018-04-24T20:36:22.764Z,18.51
2018-04-24T20:39:04.977Z,18.78
2018-04-24T20:44:19.915Z,18.14
2018-04-24T20:46:51.636Z,18.23
2018-04-24T20:49:27.522Z,18.65
2018-04-24T20:52:00.246Z,18.68
2018-04-24T20:54:32.307Z,18.54
2018-04-24T20:57:05.215Z,18.73
2018-04-24T20:59:38.462Z,18.66
2018-04-24T21:02:13.262Z,18.17
2018-04-24T21:04:53.813Z,18.70
2018-04-24T21:07:29.154Z,18.72
2018-04-24T21:10:02.902Z,18.58
2018-04-24T21:12:38.184Z,18.19
2018-04-24T21:15:13.458Z,18.49
2018-04-24T21:17:45.475Z,18.70
2018-04-24T21:20:21.083Z,18.55
2018-04-24T21:22:53.268Z,18.43
2018-04-24T21:25:24.335Z,18.19
2018-04-24T21:27:57.081Z,18.40
2018-04-24T21:30:30.785Z,18.43
2018-04-24T21:33:06.195Z,18.37
2018-04-24T21:35:39.089Z,18.09
2018-04-24T21:38:10.107Z,18.21
2018-04-24T21:40:41.879Z,18.22
2018-04-24T21:43:12.580Z,17.95
2018-04-24T21:45:47.809Z,18.28
2018-04-24T21:48:42.170Z,18.48
2018-04-24T21:51:19.377Z,18.46
2018-04-24T21:56:47.225Z,17.97
2018-04-24T22:05:42.599Z,17.84
2018-04-24T22:08:14.100Z,17.92
2018-04-24T22:10:44.745Z,17.91
2018-04-24T22:16:10.437Z,18.35
2018-04-24T22:18:41.494Z,18.36
2018-04-24T22:21:12.233Z,18.18
2018-04-24T22:23:44.546Z,18.13
2018-04-24T22:26:16.701Z,17.94
2018-04-24T22:28:48.783Z,18.08
2018-04-24T22:31:20.553Z,18.44
2018-04-24T22:33:52.731Z,18.49
2018-04-24T22:36:24.305Z,18.30
2018-04-24T22:38:55.732Z,18.28
2018-04-24T22:41:27.561Z,18.48
2018-04-24T22:43:58.934Z,18.34
2018-04-24T22:46:31.079Z,18.21
2018-04-24T22:49:02.683Z,18.30
2018-04-24T22:51:40.931Z,18.15
2018-04-24T22:54:11.222Z,17.77
2018-04-24T22:56:41.566Z,17.97
2018-04-24T22:59:12.749Z,17.89
2018-04-24T23:01:45.598Z,18.02
2018-04-24T23:04:17.427Z,18.00
2018-04-24T23:06:49.341Z,17.92
2018-04-24T23:09:20.415Z,18.11
2018-04-24T23:12:02.060Z,18.11
2018-04-24T23:14:48.902Z,18.17
2018-04-24T23:17:36.405Z,18.23
2018-04-24T23:20:17.053Z,17.93
2018-04-24T23:22:47.798Z,17.82
2018-04-24T23:25:19.331Z,17.87
2018-04-24T23:27:54.372Z,17.96
2018-04-24T23:30:25.619Z,17.58
2018-04-24T23:32:56.210Z,17.36
2018-04-24T23:35:27.539Z,17.60
2018-04-24T23:37:58.449Z,17.50
2018-04-24T23:40:28.727Z,17.44
2018-04-24T23:43:00.298Z,17.54
2018-04-24T23:45:32.213Z,17.75
2018-04-24T23:48:03.174Z,18.00
2018-04-24T23:50:34.722Z,17.99
2018-04-24T23:53:06.021Z,18.09
2018-04-24T23:58:35.084Z,18.14
